Weather at Abbeville Chris Crusta Memorial Airport

Public forecast

Using degrees Fahrenheit for public forecast. Weather courtesy of forecast.io.

Current aviation weather report (METAR) for Abbeville Chris Crusta Memorial Airport

Retrieved 2021/01/23 07:35 UTC (15 minutes ago):

KIYA 230735Z AUTO 02005KT 10SM SCT007 BKN028 OVC055 17/15 A3002 RMK AO2 T01680152

Closest aviation forecast (TAF) to Abbeville Chris Crusta Memorial Airport

Closest forecast is Acadiana Regional Airport, 11.1 nm (20.5 km) ENE. Retrieved 2021/01/23 06:22 UTC (1 hour ago):

TAF KARA 230520Z 2306/2406 05008KT P6SM OVC025 FM230800 05007KT 2SM BR OVC008 TEMPO 2310/2314 1SM BR OVC003 FM231500 05008KT 4SM BR OVC008 FM231600 07010KT P6SM OVC007